createdAt,value
2023-05-05T00:00:14.277Z,9.681027
2023-05-05T00:01:14.300Z,9.681080
2023-05-05T00:02:14.326Z,9.681009
2023-05-05T00:03:14.375Z,9.681102
2023-05-05T00:04:14.298Z,9.681082
2023-05-05T00:05:14.236Z,9.681016
2023-05-05T00:06:14.249Z,9.681036
2023-05-05T00:07:14.215Z,9.681114
2023-05-05T00:08:14.245Z,9.681034
2023-05-05T00:09:14.225Z,9.681031
2023-05-05T00:10:14.223Z,9.681056
2023-05-05T00:11:14.231Z,9.681009
2023-05-05T00:12:14.196Z,9.681045
2023-05-05T00:13:14.197Z,9.681069
2023-05-05T00:14:14.231Z,9.681045
2023-05-05T00:15:14.195Z,9.681054
2023-05-05T00:16:14.191Z,9.681085
2023-05-05T00:17:14.246Z,9.681066
2023-05-05T00:18:14.159Z,9.681111
2023-05-05T00:19:14.182Z,9.681120
2023-05-05T00:20:14.155Z,9.681014
2023-05-05T00:21:14.146Z,9.681102
2023-05-05T00:22:14.227Z,9.681167
2023-05-05T00:23:14.141Z,9.680983
2023-05-05T00:24:14.161Z,9.681066
2023-05-05T00:25:14.147Z,9.681186
2023-05-05T00:26:14.164Z,9.681132
2023-05-05T00:27:14.105Z,9.681063
2023-05-05T00:28:14.159Z,9.681131
2023-05-05T00:29:14.095Z,9.681071
2023-05-05T00:30:14.148Z,9.681030
2023-05-05T00:31:14.137Z,9.681034
2023-05-05T00:32:14.094Z,9.681171
2023-05-05T00:33:14.062Z,9.681229
2023-05-05T00:34:14.088Z,9.681071
2023-05-05T00:35:14.072Z,9.681087
2023-05-05T00:36:14.077Z,9.681082
2023-05-05T00:37:14.081Z,9.681066
2023-05-05T00:38:14.126Z,9.681020
2023-05-05T00:39:14.031Z,9.681093
2023-05-05T00:40:14.055Z,9.681007
2023-05-05T00:41:14.038Z,9.681091
2023-05-05T00:42:14.193Z,9.681073
2023-05-05T00:43:14.015Z,9.681100
2023-05-05T00:44:14.054Z,9.681133
2023-05-05T00:45:14.010Z,9.681047
2023-05-05T00:46:14.043Z,9.681020
2023-05-05T00:47:14.018Z,9.681050
2023-05-05T00:48:14.029Z,9.681168
2023-05-05T00:49:14.007Z,9.681064
2023-05-05T00:50:14.002Z,9.681170
2023-05-05T00:51:14.019Z,9.681103
2023-05-05T00:52:14.006Z,9.681144
2023-05-05T00:53:13.976Z,9.681226
2023-05-05T00:54:14.002Z,9.681110
2023-05-05T00:55:13.955Z,9.681084
2023-05-05T00:56:13.963Z,9.681135
2023-05-05T00:57:13.965Z,9.681006
2023-05-05T00:58:13.951Z,9.681007
2023-05-05T00:59:13.951Z,9.681009
2023-05-05T01:00:13.970Z,9.680927
2023-05-05T01:01:13.947Z,9.681146
2023-05-05T01:02:13.963Z,9.681185
2023-05-05T01:03:13.978Z,9.681430
2023-05-05T01:04:13.929Z,9.681334
2023-05-05T01:05:13.918Z,9.681299
2023-05-05T01:06:13.906Z,9.681175
2023-05-05T01:07:13.887Z,9.681123
2023-05-05T01:08:13.933Z,9.681137
2023-05-05T01:09:13.879Z,9.681202
2023-05-05T01:10:20.135Z,9.681232
2023-05-05T01:11:14.904Z,9.681152
2023-05-05T01:12:13.893Z,9.681081
2023-05-05T01:13:13.974Z,9.681001
2023-05-05T01:14:13.863Z,9.680954
2023-05-05T01:15:13.872Z,9.681027
2023-05-05T01:16:13.909Z,9.681107
2023-05-05T01:17:13.853Z,9.681099
2023-05-05T01:18:13.849Z,9.681066
2023-05-05T01:19:13.816Z,9.681044
2023-05-05T01:20:13.860Z,9.681046
2023-05-05T01:21:13.821Z,9.681066
2023-05-05T01:22:13.873Z,9.681058
2023-05-05T01:23:13.804Z,9.681026
2023-05-05T01:24:13.819Z,9.680961
2023-05-05T01:25:13.791Z,9.681016
2023-05-05T01:26:13.824Z,9.681058
2023-05-05T01:27:13.776Z,9.681068
2023-05-05T01:28:13.835Z,9.680944
2023-05-05T01:29:13.769Z,9.680986
2023-05-05T01:30:13.787Z,9.680958
2023-05-05T01:31:13.804Z,9.681004
2023-05-05T01:32:13.770Z,9.681088
2023-05-05T01:33:13.776Z,9.681075
2023-05-05T01:34:13.758Z,9.681058
2023-05-05T01:35:13.742Z,9.681058
2023-05-05T01:36:13.767Z,9.681026
2023-05-05T01:37:13.729Z,9.681009
2023-05-05T01:38:13.777Z,9.681114
2023-05-05T01:39:13.718Z,9.681149
2023-05-05T01:40:13.720Z,9.681068
2023-05-05T01:41:13.704Z,9.681063
2023-05-05T01:42:13.719Z,9.681031
2023-05-05T01:43:13.727Z,9.680985
2023-05-05T01:44:13.696Z,9.681025
2023-05-05T01:45:13.718Z,9.680935
2023-05-05T01:46:13.798Z,9.681129
2023-05-05T01:47:13.666Z,9.681136
2023-05-05T01:48:13.759Z,9.680944
2023-05-05T01:49:13.678Z,9.680987
2023-05-05T01:50:13.699Z,9.681103
2023-05-05T01:51:13.657Z,9.681005
2023-05-05T01:52:13.657Z,9.681051
2023-05-05T01:53:13.651Z,9.680972
2023-05-05T01:54:13.650Z,9.680983
2023-05-05T01:55:13.631Z,9.681011
2023-05-05T01:56:13.668Z,9.680964
2023-05-05T01:57:13.625Z,9.680935
2023-05-05T01:58:13.628Z,9.681078
2023-05-05T01:59:13.606Z,9.680967
2023-05-05T02:00:13.689Z,9.681050
2023-05-05T02:01:13.615Z,9.680963
2023-05-05T02:02:13.653Z,9.680990
2023-05-05T02:03:13.730Z,9.681070
2023-05-05T02:04:13.591Z,9.681054
2023-05-05T02:05:13.596Z,9.680923
2023-05-05T02:06:13.576Z,9.681015
2023-05-05T02:07:13.553Z,9.680999
2023-05-05T02:08:13.604Z,9.681170
2023-05-05T02:09:13.579Z,9.681089
2023-05-05T02:10:13.564Z,9.681202
2023-05-05T02:11:13.532Z,9.681211
2023-05-05T02:12:13.547Z,9.681153
2023-05-05T02:13:13.635Z,9.681130
2023-05-05T02:14:13.579Z,9.681021
2023-05-05T02:15:13.505Z,9.681103
2023-05-05T02:16:13.575Z,9.681066
2023-05-05T02:17:13.518Z,9.681053
2023-05-05T02:18:13.537Z,9.681108
2023-05-05T02:19:13.499Z,9.681171
2023-05-05T02:20:13.531Z,9.681064
2023-05-05T02:21:13.487Z,9.681048
2023-05-05T02:22:13.503Z,9.681151
2023-05-05T02:23:13.465Z,9.681099
2023-05-05T02:24:13.557Z,9.680996
2023-05-05T02:25:13.485Z,9.680983
2023-05-05T02:26:13.476Z,9.681039
2023-05-05T02:27:13.457Z,9.680966
2023-05-05T02:28:13.495Z,9.680921
2023-05-05T02:29:13.439Z,9.680996
2023-05-05T02:30:13.466Z,9.681023
2023-05-05T02:31:13.449Z,9.680992
2023-05-05T02:32:13.466Z,9.681032
2023-05-05T02:33:13.420Z,9.681060
2023-05-05T02:34:13.516Z,9.681038
2023-05-05T02:35:13.430Z,9.680867
2023-05-05T02:36:13.415Z,9.680996
2023-05-05T02:37:13.445Z,9.681016
2023-05-05T02:38:13.429Z,9.681100
2023-05-05T02:39:13.382Z,9.680936
2023-05-05T02:40:13.393Z,9.681119
2023-05-05T02:41:13.397Z,9.680940
2023-05-05T02:42:13.395Z,9.681090
2023-05-05T02:43:13.450Z,9.681114
2023-05-05T02:44:13.386Z,9.681098
2023-05-05T02:45:13.364Z,9.680957
2023-05-05T02:46:13.402Z,9.681080
2023-05-05T02:47:13.375Z,9.680941
2023-05-05T02:48:13.344Z,9.680967
2023-05-05T02:49:13.325Z,9.681051
2023-05-05T02:50:13.354Z,9.681018
2023-05-05T02:51:13.329Z,9.680943
2023-05-05T02:52:13.352Z,9.681023
2023-05-05T02:53:13.349Z,9.681028
2023-05-05T02:54:13.323Z,9.681091
2023-05-05T02:55:13.306Z,9.681143
2023-05-05T02:56:13.309Z,9.681103
2023-05-05T02:57:13.280Z,9.681033
2023-05-05T02:58:13.295Z,9.680999
2023-05-05T02:59:15.865Z,9.681039
2023-05-05T03:00:13.324Z,9.680993
2023-05-05T03:01:13.312Z,9.681013
2023-05-05T03:02:13.305Z,9.681008
2023-05-05T03:03:13.367Z,9.680985
2023-05-05T03:04:13.291Z,9.681026
2023-05-05T03:05:13.270Z,9.681015
2023-05-05T03:06:13.259Z,9.681000
2023-05-05T03:07:13.230Z,9.681029
2023-05-05T03:08:13.277Z,9.681043
2023-05-05T03:09:13.220Z,9.681020
2023-05-05T03:10:13.270Z,9.680918
2023-05-05T03:11:13.220Z,9.680976
2023-05-05T03:12:13.242Z,9.681065
2023-05-05T03:13:13.248Z,9.681061
2023-05-05T03:14:13.245Z,9.681078
2023-05-05T03:15:13.191Z,9.681044
2023-05-05T03:16:13.258Z,9.681027
2023-05-05T03:17:13.209Z,9.681030
2023-05-05T03:18:13.236Z,9.681022
2023-05-05T03:19:13.199Z,9.680991
2023-05-05T03:20:13.215Z,9.680950
2023-05-05T03:21:13.164Z,9.680992
2023-05-05T03:22:13.187Z,9.681052
2023-05-05T03:23:13.207Z,9.681056
2023-05-05T03:24:13.178Z,9.681032
2023-05-05T03:25:13.135Z,9.681067
2023-05-05T03:26:13.159Z,9.681060
2023-05-05T03:27:13.131Z,9.681056
2023-05-05T03:28:13.169Z,9.681040
2023-05-05T03:29:13.148Z,9.680998
2023-05-05T03:30:13.122Z,9.680950
2023-05-05T03:31:13.126Z,9.680990
2023-05-05T03:32:13.159Z,9.681026
2023-05-05T03:33:13.085Z,9.681025
2023-05-05T03:34:13.100Z,9.681055
2023-05-05T03:35:13.088Z,9.681082
2023-05-05T03:36:13.158Z,9.681126
2023-05-05T03:37:13.067Z,9.681117
2023-05-05T03:38:13.122Z,9.681067
2023-05-05T03:39:13.064Z,9.681014
2023-05-05T03:40:13.090Z,9.681020
2023-05-05T03:41:13.051Z,9.680933
2023-05-05T03:42:13.098Z,9.680941
2023-05-05T03:43:13.071Z,9.680986
2023-05-05T03:44:13.066Z,9.681021
2023-05-05T03:45:13.031Z,9.681022
2023-05-05T03:46:13.140Z,9.681027
2023-05-05T03:47:13.029Z,9.680996
2023-05-05T03:48:13.070Z,9.680977
2023-05-05T03:49:13.018Z,9.680992
2023-05-05T03:50:13.025Z,9.680967
2023-05-05T03:51:12.995Z,9.680977
2023-05-05T03:52:14.957Z,9.681010
2023-05-05T03:53:12.972Z,9.680980
2023-05-05T03:54:13.042Z,9.680988
2023-05-05T03:55:12.973Z,9.681007
2023-05-05T03:56:12.990Z,9.680982
2023-05-05T03:57:12.962Z,9.680980
2023-05-05T03:58:12.972Z,9.680971
2023-05-05T03:59:12.968Z,9.681026
2023-05-05T04:00:12.958Z,9.681074
2023-05-05T04:01:12.981Z,9.681047
2023-05-05T04:02:12.979Z,9.681079
2023-05-05T04:03:13.128Z,9.681028
2023-05-05T04:04:13.047Z,9.681061
2023-05-05T04:05:12.901Z,9.681080
2023-05-05T04:06:12.937Z,9.681089
2023-05-05T04:07:12.901Z,9.681068
2023-05-05T04:08:12.921Z,9.680933
2023-05-05T04:09:12.911Z,9.681088
2023-05-05T04:10:12.902Z,9.681045
2023-05-05T04:11:12.920Z,9.681072
2023-05-05T04:12:12.887Z,9.680998
2023-05-05T04:13:12.895Z,9.681041
2023-05-05T04:14:12.931Z,9.681013
2023-05-05T04:15:12.850Z,9.681056
2023-05-05T04:16:12.925Z,9.681027
2023-05-05T04:17:12.850Z,9.681078
2023-05-05T04:18:12.851Z,9.681042
2023-05-05T04:19:12.868Z,9.681026
2023-05-05T04:20:12.858Z,9.681022
2023-05-05T04:21:12.826Z,9.680984
2023-05-05T04:22:12.832Z,9.681017
2023-05-05T04:23:12.832Z,9.681016
2023-05-05T04:24:12.856Z,9.680953
2023-05-05T04:25:12.813Z,9.681058
2023-05-05T04:26:12.817Z,9.681020
2023-05-05T04:27:12.821Z,9.681053
2023-05-05T04:28:12.802Z,9.681056
2023-05-05T04:29:12.807Z,9.681032
2023-05-05T04:30:12.795Z,9.681030
2023-05-05T04:31:12.807Z,9.680987
2023-05-05T04:32:12.770Z,9.681037
2023-05-05T04:33:12.762Z,9.680981
2023-05-05T04:34:12.804Z,9.681059
2023-05-05T04:35:12.744Z,9.680981
2023-05-05T04:36:12.760Z,9.681053
2023-05-05T04:37:12.741Z,9.681033
2023-05-05T04:38:12.735Z,9.681144
2023-05-05T04:39:12.726Z,9.681134
2023-05-05T04:40:12.762Z,9.681170
2023-05-05T04:41:12.714Z,9.681085
2023-05-05T04:42:12.742Z,9.681074
2023-05-05T04:43:12.703Z,9.681083
2023-05-05T04:44:12.713Z,9.681095
2023-05-05T04:45:12.721Z,9.681084
2023-05-05T04:46:12.738Z,9.681021
2023-05-05T04:47:14.537Z,9.681093
2023-05-05T04:48:12.761Z,9.681100
2023-05-05T04:49:12.694Z,9.681137
2023-05-05T04:50:12.724Z,9.681146
2023-05-05T04:51:12.730Z,9.681085
2023-05-05T04:52:12.702Z,9.681023
2023-05-05T04:53:12.651Z,9.681079
2023-05-05T04:54:12.652Z,9.681129
2023-05-05T04:55:12.649Z,9.681117
2023-05-05T04:56:12.653Z,9.681106
2023-05-05T04:57:12.621Z,9.680995
2023-05-05T04:58:12.633Z,9.680977
2023-05-05T04:59:12.637Z,9.681019
2023-05-05T05:00:12.651Z,9.681054
2023-05-05T05:01:12.642Z,9.681034
2023-05-05T05:02:12.719Z,9.680955
2023-05-05T05:03:12.680Z,9.680989
2023-05-05T05:04:12.618Z,9.681059
2023-05-05T05:05:12.606Z,9.680949
2023-05-05T05:06:12.601Z,9.681126
2023-05-05T05:07:12.579Z,9.681145
2023-05-05T05:08:12.564Z,9.681081
2023-05-05T05:09:12.565Z,9.681016
2023-05-05T05:10:12.577Z,9.681151
2023-05-05T05:11:12.550Z,9.681120
2023-05-05T05:12:12.540Z,9.681065
2023-05-05T05:13:13.087Z,9.680964
2023-05-05T05:14:12.534Z,9.681097
2023-05-05T05:15:12.500Z,9.681115
2023-05-05T05:16:12.545Z,9.681094
2023-05-05T05:17:12.488Z,9.681159
2023-05-05T05:18:12.513Z,9.681138
2023-05-05T05:19:12.542Z,9.681049
2023-05-05T05:20:12.498Z,9.681112
2023-05-05T05:21:12.469Z,9.681047
2023-05-05T05:22:12.501Z,9.681063
2023-05-05T05:23:12.452Z,9.680956
2023-05-05T05:24:12.493Z,9.681049
2023-05-05T05:25:12.484Z,9.681091
2023-05-05T05:26:12.461Z,9.681018
2023-05-05T05:27:12.437Z,9.681147
2023-05-05T05:28:12.477Z,9.681175
2023-05-05T05:29:12.448Z,9.681131
2023-05-05T05:30:12.443Z,9.681082
2023-05-05T05:31:12.429Z,9.681047
2023-05-05T05:32:12.476Z,9.681062
2023-05-05T05:33:12.440Z,9.681110
2023-05-05T05:34:12.970Z,9.681124
2023-05-05T05:35:12.385Z,9.681100
2023-05-05T05:36:12.434Z,9.681097
2023-05-05T05:37:12.395Z,9.681053
2023-05-05T05:38:12.383Z,9.681089
2023-05-05T05:39:12.363Z,9.681021
2023-05-05T05:40:12.395Z,9.681056
2023-05-05T05:41:12.346Z,9.681116
2023-05-05T05:42:12.375Z,9.681096
2023-05-05T05:43:12.329Z,9.681106
2023-05-05T05:44:12.340Z,9.681149
2023-05-05T05:45:12.336Z,9.681125
2023-05-05T05:46:12.339Z,9.681080
2023-05-05T05:47:12.291Z,9.681191
2023-05-05T05:48:12.333Z,9.681027
2023-05-05T05:49:12.284Z,9.680960
2023-05-05T05:50:12.290Z,9.680820
2023-05-05T05:51:12.294Z,9.680987
2023-05-05T05:52:12.294Z,9.681037
2023-05-05T05:53:12.257Z,9.681141
2023-05-05T05:54:12.267Z,9.681087
2023-05-05T05:55:12.264Z,9.681163
2023-05-05T05:56:12.296Z,9.681270
2023-05-05T05:57:12.243Z,9.681069
2023-05-05T05:58:12.230Z,9.681165
2023-05-05T05:59:12.237Z,9.681123
2023-05-05T06:00:12.206Z,9.681040
2023-05-05T06:01:12.207Z,9.681016
2023-05-05T06:02:12.252Z,9.680948
2023-05-05T06:03:12.431Z,9.681055
2023-05-05T06:04:12.230Z,9.681109
2023-05-05T06:05:12.181Z,9.680991
2023-05-05T06:06:12.163Z,9.680991
2023-05-05T06:07:12.158Z,9.681065
2023-05-05T06:08:12.187Z,9.681029
2023-05-05T06:09:12.129Z,9.681034
2023-05-05T06:10:26.653Z,9.681041
2023-05-05T06:11:13.121Z,9.681091
2023-05-05T06:12:12.121Z,9.681064
2023-05-05T06:13:12.177Z,9.681004
2023-05-05T06:14:12.141Z,9.681010
2023-05-05T06:15:12.083Z,9.680975
2023-05-05T06:16:12.183Z,9.680976
2023-05-05T06:17:12.069Z,9.680991
2023-05-05T06:18:12.135Z,9.681046
2023-05-05T06:19:12.052Z,9.681026
2023-05-05T06:20:12.080Z,9.681044
2023-05-05T06:21:12.038Z,9.681066
2023-05-05T06:22:12.044Z,9.681033
2023-05-05T06:23:12.005Z,9.681116
2023-05-05T06:24:12.010Z,9.681005
2023-05-05T06:25:11.993Z,9.681003
2023-05-05T06:26:12.017Z,9.681068
2023-05-05T06:27:12.004Z,9.681046
2023-05-05T06:28:12.013Z,9.681101
2023-05-05T06:29:12.453Z,9.681093
2023-05-05T06:30:11.984Z,9.681090
2023-05-05T06:31:11.993Z,9.681063
2023-05-05T06:32:11.950Z,9.681106
2023-05-05T06:33:11.951Z,9.681088
2023-05-05T06:34:11.943Z,9.681067
2023-05-05T06:35:11.916Z,9.681064
2023-05-05T06:36:12.023Z,9.681048
2023-05-05T06:37:11.900Z,9.681094
2023-05-05T06:38:11.907Z,9.681039
2023-05-05T06:39:12.670Z,9.681023
2023-05-05T06:40:11.898Z,9.681069
2023-05-05T06:41:11.908Z,9.681077
2023-05-05T06:42:11.879Z,9.681072
2023-05-05T06:43:11.867Z,9.681129
2023-05-05T06:44:11.878Z,9.681111
2023-05-05T06:45:11.837Z,9.681114
2023-05-05T06:46:11.897Z,9.681117
2023-05-05T06:47:11.825Z,9.681154
2023-05-05T06:48:11.937Z,9.681164
2023-05-05T06:49:11.808Z,9.681144
2023-05-05T06:50:11.844Z,9.681147
2023-05-05T06:51:11.815Z,9.681136
2023-05-05T06:52:11.821Z,9.681101
2023-05-05T06:53:11.776Z,9.681148
2023-05-05T06:54:11.799Z,9.681157
2023-05-05T06:55:11.792Z,9.681085
2023-05-05T06:56:11.891Z,9.681106
2023-05-05T06:57:11.773Z,9.681065
2023-05-05T06:58:11.757Z,9.681081
2023-05-05T06:59:11.743Z,9.681024
2023-05-05T07:00:11.751Z,9.681061
2023-05-05T07:01:11.766Z,9.681045
2023-05-05T07:02:11.732Z,9.681011
2023-05-05T07:03:11.897Z,9.681026
2023-05-05T07:04:11.911Z,9.681080
2023-05-05T07:05:11.714Z,9.681100
2023-05-05T07:06:11.714Z,9.681126
2023-05-05T07:07:11.680Z,9.681143
2023-05-05T07:08:11.710Z,9.681197
2023-05-05T07:09:11.663Z,9.681126
2023-05-05T07:10:11.691Z,9.681149
2023-05-05T07:11:11.663Z,9.681100
2023-05-05T07:12:11.696Z,9.681138
2023-05-05T07:13:11.797Z,9.681106
2023-05-05T07:14:11.679Z,9.681137
2023-05-05T07:15:26.116Z,9.681081
2023-05-05T07:16:12.660Z,9.681107
2023-05-05T07:17:11.759Z,9.681077
2023-05-05T07:18:12.604Z,9.681091
2023-05-05T07:19:11.606Z,9.681084
2023-05-05T07:20:11.745Z,9.681053
2023-05-05T07:21:11.622Z,9.681094
2023-05-05T07:22:11.614Z,9.681073
2023-05-05T07:23:11.571Z,9.681054
2023-05-05T07:24:11.587Z,9.681100
2023-05-05T07:25:11.560Z,9.681028
2023-05-05T07:26:11.590Z,9.681061
2023-05-05T07:27:11.564Z,9.681051
2023-05-05T07:28:11.573Z,9.681028
2023-05-05T07:29:11.687Z,9.681049
2023-05-05T07:30:14.738Z,9.681107
2023-05-05T07:31:12.518Z,9.681074
2023-05-05T07:32:11.543Z,9.681077
2023-05-05T07:33:11.547Z,9.681068
2023-05-05T07:34:11.554Z,9.681139
2023-05-05T07:35:11.522Z,9.681139
2023-05-05T07:36:11.575Z,9.681094
2023-05-05T07:37:11.474Z,9.681030
2023-05-05T07:38:11.489Z,9.681011
2023-05-05T07:39:11.475Z,9.681117
2023-05-05T07:40:11.663Z,9.681010
2023-05-05T07:41:11.454Z,9.681110
2023-05-05T07:42:11.463Z,9.681127
2023-05-05T07:43:11.452Z,9.681065
2023-05-05T07:44:11.446Z,9.681006
2023-05-05T07:45:11.431Z,9.681018
2023-05-05T07:46:11.497Z,9.681091
2023-05-05T07:47:11.399Z,9.680982
2023-05-05T07:48:11.438Z,9.680921
2023-05-05T07:49:11.440Z,9.680917
2023-05-05T07:50:11.665Z,9.681216
2023-05-05T07:51:11.381Z,9.681079
2023-05-05T07:52:11.563Z,9.681006
2023-05-05T07:53:14.756Z,9.681053
2023-05-05T07:54:11.375Z,9.681033
2023-05-05T07:55:11.372Z,9.681154
2023-05-05T07:56:11.356Z,9.681090
2023-05-05T07:57:11.360Z,9.681170
2023-05-05T07:58:11.344Z,9.681137
2023-05-05T07:59:11.333Z,9.681114
2023-05-05T08:00:11.614Z,9.681104
2023-05-05T08:01:11.349Z,9.681089
2023-05-05T08:02:11.369Z,9.681060
2023-05-05T08:03:12.130Z,9.681068
2023-05-05T08:04:11.414Z,9.681035
2023-05-05T08:05:11.474Z,9.681032
2023-05-05T08:06:11.316Z,9.681053
2023-05-05T08:07:11.265Z,9.681040
2023-05-05T08:08:11.346Z,9.681061
2023-05-05T08:09:11.251Z,9.681137
2023-05-05T08:10:11.315Z,9.681080
2023-05-05T08:11:11.244Z,9.681109
2023-05-05T08:12:11.273Z,9.681064
2023-05-05T08:13:11.256Z,9.681042
2023-05-05T08:14:11.240Z,9.681067
2023-05-05T08:15:11.429Z,9.680990
2023-05-05T08:16:11.296Z,9.681021
2023-05-05T08:17:11.237Z,9.681152
2023-05-05T08:18:11.213Z,9.681055
2023-05-05T08:19:25.095Z,9.681159
2023-05-05T08:20:12.212Z,9.681076
2023-05-05T08:21:11.170Z,9.681127
2023-05-05T08:22:11.196Z,9.681069
2023-05-05T08:23:11.170Z,9.681006
2023-05-05T08:24:11.289Z,9.680942
2023-05-05T08:25:11.185Z,9.680970
2023-05-05T08:26:11.176Z,9.680873
2023-05-05T08:27:11.140Z,9.680886
2023-05-05T08:28:11.147Z,9.680946
2023-05-05T08:29:11.127Z,9.680996
2023-05-05T08:30:11.183Z,9.681132
2023-05-05T08:31:11.153Z,9.680943
2023-05-05T08:32:11.140Z,9.680899
2023-05-05T08:33:11.165Z,9.681206
2023-05-05T08:34:11.103Z,9.681170
2023-05-05T08:35:11.345Z,9.681063
2023-05-05T08:36:11.115Z,9.681225
2023-05-05T08:37:11.081Z,9.681232
2023-05-05T08:38:11.083Z,9.681152
2023-05-05T08:39:11.098Z,9.681014
2023-05-05T08:40:11.121Z,9.681117
2023-05-05T08:41:11.032Z,9.680973
2023-05-05T08:42:11.048Z,9.681068
2023-05-05T08:43:11.036Z,9.681097
2023-05-05T08:44:11.036Z,9.681156
2023-05-05T08:45:11.516Z,9.681164
2023-05-05T08:46:11.017Z,9.681085
2023-05-05T08:47:11.192Z,9.681077
2023-05-05T08:48:11.013Z,9.681028
2023-05-05T08:49:10.992Z,9.681057
2023-05-05T08:50:11.034Z,9.681212
2023-05-05T08:51:10.961Z,9.681036
2023-05-05T08:52:11.010Z,9.681095
2023-05-05T08:53:10.955Z,9.680994
2023-05-05T08:54:10.951Z,9.680865
2023-05-05T08:55:10.958Z,9.680824
2023-05-05T08:56:11.032Z,9.681000
2023-05-05T08:57:10.915Z,9.681133
2023-05-05T08:58:10.931Z,9.681091
2023-05-05T08:59:10.907Z,9.680942
2023-05-05T09:00:10.956Z,9.680983
2023-05-05T09:01:10.984Z,9.681022
2023-05-05T09:02:10.914Z,9.681013
2023-05-05T09:03:10.952Z,9.681030
2023-05-05T09:04:10.913Z,9.681011
2023-05-05T09:05:11.124Z,9.681120
2023-05-05T09:06:10.893Z,9.681067
2023-05-05T09:07:10.855Z,9.681078
2023-05-05T09:08:10.892Z,9.681040
2023-05-05T09:09:10.842Z,9.680989
2023-05-05T09:10:10.847Z,9.680996
2023-05-05T09:11:10.822Z,9.681015
2023-05-05T09:12:10.952Z,9.681030
2023-05-05T09:13:10.942Z,9.681041
2023-05-05T09:14:10.844Z,9.680988
2023-05-05T09:15:10.919Z,9.681008
2023-05-05T09:16:10.864Z,9.681016
2023-05-05T09:17:10.826Z,9.680971
2023-05-05T09:18:10.939Z,9.681056
2023-05-05T09:19:10.777Z,9.681139
2023-05-05T09:20:10.816Z,9.681095
2023-05-05T09:21:10.762Z,9.681074
2023-05-05T09:22:10.821Z,9.681078
2023-05-05T09:23:10.750Z,9.681095
2023-05-05T09:24:10.759Z,9.681079
2023-05-05T09:25:10.757Z,9.681109
2023-05-05T09:26:10.745Z,9.681040
2023-05-05T09:27:10.720Z,9.681032
2023-05-05T09:28:10.888Z,9.681029
2023-05-05T09:29:10.708Z,9.681158
2023-05-05T09:30:10.734Z,9.681122
2023-05-05T09:31:10.711Z,9.681106
2023-05-05T09:32:10.745Z,9.681087
2023-05-05T09:33:10.697Z,9.681029
2023-05-05T09:34:10.683Z,9.681032
2023-05-05T09:35:10.658Z,9.681057
2023-05-05T09:36:10.668Z,9.681134
2023-05-05T09:37:10.669Z,9.681079
2023-05-05T09:38:10.653Z,9.681101
2023-05-05T09:39:10.628Z,9.681138
2023-05-05T09:40:10.637Z,9.681212
2023-05-05T09:41:10.625Z,9.681252
2023-05-05T09:42:10.621Z,9.681198
2023-05-05T09:43:10.628Z,9.681174
2023-05-05T09:44:10.650Z,9.681025
2023-05-05T09:45:10.595Z,9.681078
2023-05-05T09:46:10.613Z,9.681067
2023-05-05T09:47:26.076Z,9.681110
2023-05-05T09:48:11.635Z,9.681064
2023-05-05T09:49:10.582Z,9.681095
2023-05-05T09:50:10.670Z,9.681166
2023-05-05T09:51:10.558Z,9.681082
2023-05-05T09:52:10.584Z,9.681126
2023-05-05T09:53:10.543Z,9.681211
2023-05-05T09:54:10.549Z,9.681160
2023-05-05T09:55:10.561Z,9.681061
2023-05-05T09:56:10.552Z,9.681061
2023-05-05T09:57:10.510Z,9.681153
2023-05-05T09:58:10.576Z,9.681180
2023-05-05T09:59:10.510Z,9.681142
2023-05-05T10:00:10.867Z,9.681152
2023-05-05T10:01:10.557Z,9.681189
2023-05-05T10:02:10.491Z,9.681066
2023-05-05T10:03:10.498Z,9.680959
2023-05-05T10:04:10.477Z,9.680857
2023-05-05T10:05:10.526Z,9.680994
2023-05-05T10:06:10.474Z,9.681175
2023-05-05T10:07:10.444Z,9.681144
2023-05-05T10:08:10.445Z,9.681123
2023-05-05T10:09:10.421Z,9.681122
2023-05-05T10:10:10.584Z,9.681150
2023-05-05T10:11:10.417Z,9.681158
2023-05-05T10:12:10.442Z,9.681140
2023-05-05T10:13:10.409Z,9.681212
2023-05-05T10:14:10.433Z,9.681246
2023-05-05T10:15:10.416Z,9.681252
2023-05-05T10:16:10.567Z,9.681182
2023-05-05T10:17:10.360Z,9.681154
2023-05-05T10:18:10.389Z,9.681297
2023-05-05T10:19:10.357Z,9.681333
2023-05-05T10:20:10.522Z,9.681340
2023-05-05T10:21:10.351Z,9.681312
2023-05-05T10:22:10.352Z,9.681277
2023-05-05T10:23:10.351Z,9.681234
2023-05-05T10:24:10.330Z,9.681334
2023-05-05T10:25:10.315Z,9.681312
2023-05-05T10:26:10.367Z,9.681201
2023-05-05T10:27:12.105Z,9.681267
2023-05-05T10:28:10.307Z,9.681297
2023-05-05T10:29:10.308Z,9.681259
2023-05-05T10:30:10.479Z,9.681273
2023-05-05T10:31:20.401Z,9.681166
2023-05-05T10:32:33.487Z,9.681201
2023-05-05T10:33:30.159Z,9.681163
2023-05-05T10:34:11.359Z,9.681190
2023-05-05T10:35:10.277Z,9.681153
2023-05-05T10:36:10.259Z,9.681181
2023-05-05T10:37:10.266Z,9.681363
2023-05-05T10:38:10.272Z,9.681175
2023-05-05T10:39:10.221Z,9.681205
2023-05-05T10:40:10.469Z,9.681187
2023-05-05T10:41:10.206Z,9.681150
2023-05-05T10:42:10.217Z,9.681213
2023-05-05T10:43:10.223Z,9.681042
2023-05-05T10:44:10.206Z,9.681060
2023-05-05T10:45:10.255Z,9.681142
2023-05-05T10:46:10.231Z,9.681221
2023-05-05T10:47:10.162Z,9.681179
2023-05-05T10:48:10.373Z,9.681080
2023-05-05T10:49:12.489Z,9.681056
2023-05-05T10:50:10.403Z,9.681028
2023-05-05T10:51:10.144Z,9.681069
2023-05-05T10:52:10.156Z,9.681097
2023-05-05T10:53:10.175Z,9.681025
2023-05-05T10:54:10.257Z,9.680982
2023-05-05T10:55:10.116Z,9.680920
2023-05-05T10:56:10.119Z,9.680956
2023-05-05T10:57:10.105Z,9.681004
2023-05-05T10:58:10.145Z,9.681016
2023-05-05T10:59:10.115Z,9.680982
2023-05-05T11:00:10.256Z,9.681052
2023-05-05T11:01:10.097Z,9.681080
2023-05-05T11:02:10.101Z,9.681108
2023-05-05T11:03:10.108Z,9.681056
2023-05-05T11:04:10.103Z,9.681170
2023-05-05T11:05:10.075Z,9.681181
2023-05-05T11:06:10.059Z,9.681161
2023-05-05T11:07:14.300Z,9.681023
2023-05-05T11:08:10.046Z,9.681052
2023-05-05T11:09:10.046Z,9.681088
2023-05-05T11:10:10.265Z,9.681083
2023-05-05T11:11:10.004Z,9.681111
2023-05-05T11:12:10.008Z,9.681099
2023-05-05T11:13:10.031Z,9.681042
2023-05-05T11:14:09.987Z,9.681110
2023-05-05T11:15:09.976Z,9.681071
2023-05-05T11:16:10.010Z,9.681058
2023-05-05T11:17:10.041Z,9.681083
2023-05-05T11:18:10.000Z,9.681103
2023-05-05T11:19:09.955Z,9.681123
2023-05-05T11:20:10.228Z,9.680991
2023-05-05T11:21:09.954Z,9.681043
2023-05-05T11:22:09.976Z,9.681160
2023-05-05T11:23:09.960Z,9.681049
2023-05-05T11:24:09.943Z,9.681026
2023-05-05T11:25:09.915Z,9.680986
2023-05-05T11:26:09.960Z,9.680990
2023-05-05T11:27:09.905Z,9.680940
2023-05-05T11:28:09.910Z,9.680935
2023-05-05T11:29:09.882Z,9.681038
2023-05-05T11:30:10.204Z,9.681023
2023-05-05T11:31:10.006Z,9.680899
2023-05-05T11:32:10.051Z,9.680978
2023-05-05T11:33:09.868Z,9.681063
2023-05-05T11:34:09.874Z,9.681015
2023-05-05T11:35:09.905Z,9.681050
2023-05-05T11:36:09.929Z,9.680983
2023-05-05T11:37:09.847Z,9.681047
2023-05-05T11:38:09.861Z,9.681095
2023-05-05T11:39:09.848Z,9.681045
2023-05-05T11:40:10.063Z,9.680960
2023-05-05T11:41:09.840Z,9.681067
2023-05-05T11:42:10.899Z,9.681067
2023-05-05T11:43:09.804Z,9.681034
2023-05-05T11:44:09.838Z,9.681087